Latest Weather Observations for Thargomindah

IDQ60801

Issued at 9:02 pm EST Saturday 6 February 2016 (issued every 30 minutes, with the page automatically refreshed every 10 minutes)

About weather observations | Map of weather stations | Latest weather observations for QLD | Other Formats
Station Details ID: 045025 Name: THARGOMINDAH AIRPORT Lat: -27.99 Lon: 143.81 Height: 130.89 m
Data from the previous 72 hours. | See also: Recent months at Thargomindah
Date/Time
EST
Temp
°C
App
Temp
°C
Dew
Point
Rel
Hum
%
Delta-T
°C
Wind Press
QNH
hPa
Press
MSL
hPa
Rain
since 9 am
mm
Dir
 
Spd
km/h
Gust
km/h
Spd
kts
Gust
kts
06/09:00pm 24.9 23.7 18.3 66 4.2 ENE 22 30 12 16 1011.4 - 4.6
06/08:30pm 24.9 24.2 18.6 68 4.0 E 20 24 11 13 1011.4 - 4.6
06/08:00pm 24.8 24.1 18.3 67 4.1 E 19 26 10 14 1011.2 - 4.6
06/07:30pm 24.7 24.5 18.6 69 3.9 ESE 17 22 9 12 1011.1 - 4.6
06/07:00pm 24.9 24.2 18.3 66 4.2 E 19 28 10 15 1010.6 - 4.6
06/06:30pm 24.0 24.5 20.1 79 2.5 ESE 17 22 9 12 1010.1 - 4.6
06/06:00pm 23.5 24.3 19.8 80 2.4 SE 15 22 8 12 1010.0 1008.9 4.6
06/05:30pm 24.1 25.4 20.2 79 2.5 SE 13 19 7 10 1009.8 - 4.4
06/05:00pm 23.1 23.1 19.7 81 2.2 SE 19 26 10 14 1009.8 - 3.8
06/04:30pm 23.6 24.0 19.1 76 2.9 ESE 15 20 8 11 1010.0 - 3.6
06/04:00pm 23.0 23.2 19.4 80 2.3 E 17 26 9 14 1009.8 - 3.6
06/03:30pm 22.2 21.9 20.3 89 1.2 E 22 35 12 19 1010.0 - 3.6
06/03:00pm 22.3 22.2 20.8 91 1.0 E 22 28 12 15 1010.2 1009.1 2.4
06/02:30pm 22.3 21.4 20.6 90 1.1 E 26 37 14 20 1010.2 - 1.0
06/02:08pm 22.8 18.6 19.0 79 2.4 E 39 50 21 27 1010.2 - 0.6
06/02:00pm 24.2 24.1 19.5 75 3.0 E 19 30 10 16 1010.2 - 0.0
06/01:30pm 25.1 24.2 20.6 76 3.0 ESE 26 39 14 21 1010.2 - 0.0
06/01:00pm 27.1 24.6 18.9 61 5.3 E 30 35 16 19 1009.9 - 0.0
06/12:30pm 28.2 27.5 18.6 56 6.2 NE 20 30 11 16 1009.8 - 0.0
06/12:00pm 28.3 27.3 17.5 52 6.9 NE 19 28 10 15 1009.9 1008.7 0.0
06/11:30am 29.0 27.8 17.5 49 7.3 E 20 33 11 18 1010.1 - 0.0
06/11:00am 28.6 27.6 17.5 51 7.0 ENE 19 30 10 16 1010.4 - 0.0
06/10:30am 29.2 27.8 17.1 48 7.7 E 20 30 11 16 1010.5 - 0.0
06/10:00am 28.2 26.5 17.1 51 7.0 E 22 28 12 15 1010.6 - 0.0
06/09:30am 27.7 27.1 17.5 53 6.5 E 17 22 9 12 1010.8 - 0.0
06/09:00am 27.6 26.5 17.7 54 6.3 E 20 32 11 17 1010.7 1009.6 0.0
06/08:30am 26.6 24.7 17.7 58 5.6 E 24 33 13 18 1010.5 - 0.0
06/08:00am 26.8 25.5 18.1 59 5.5 ENE 22 32 12 17 1010.3 - 0.0
06/07:30am 26.5 26.3 18.4 61 5.2 E 17 22 9 12 1010.2 - 0.0
06/07:00am 25.9 26.0 18.3 63 4.8 E 15 22 8 12 1009.9 - 0.0
06/06:30am 25.7 25.6 17.9 62 4.9 E 15 22 8 12 1009.6 - 0.0
06/06:00am 25.5 26.3 18.2 64 4.6 E 11 15 6 8 1009.1 1008.1 0.0
06/05:30am 25.6 25.1 17.8 62 4.9 E 17 20 9 11 1008.7 - 0.0
06/05:00am 26.0 25.3 17.4 59 5.4 E 17 26 9 14 1008.3 - 0.0
06/04:30am 26.1 25.9 17.5 59 5.4 E 15 20 8 11 1008.2 - 0.0
06/04:00am 26.1 25.9 17.5 59 5.4 E 15 22 8 12 1007.8 - 0.0
06/03:30am 26.4 25.9 16.9 56 5.9 E 15 20 8 11 1007.6 - 0.0
06/03:00am 26.3 26.1 16.8 56 5.9 E 13 19 7 10 1007.5 1006.5 0.0
06/02:30am 26.7 26.5 16.6 54 6.3 NE 13 17 7 9 1007.5 - 0.0
06/02:00am 26.8 26.7 17.0 55 6.1 ENE 13 17 7 9 1007.6 - 0.0
06/01:30am 27.2 27.7 17.4 55 6.2 NNE 11 17 6 9 1007.6 - 0.0
06/01:00am 27.7 28.1 17.2 52 6.6 NE 11 17 6 9 1007.9 - 0.0
06/12:30am 28.0 28.4 17.2 52 6.8 NE 11 20 6 11 1008.2 - 0.0
06/12:00am 28.0 28.4 17.2 52 6.8 NE 11 15 6 8 1008.4 1007.3 0.0
 
Date/Time
EST
Temp
°C
App
Temp
°C
Dew
Point
Rel
Hum
%
Delta-T
°C
Wind Press
QNH
hPa
Press
MSL
hPa
Rain
since 9 am
mm
Dir
 
Spd
km/h
Gust
km/h
Spd
kts
Gust
kts
05/11:30pm 28.4 27.8 17.6 52 6.9 NNE 17 20 9 11 1008.4 - 0.0
05/11:00pm 29.0 28.9 17.8 50 7.2 NNE 15 20 8 11 1008.4 - 0.0
05/10:30pm 29.4 29.4 17.2 47 7.7 NNE 13 17 7 9 1008.3 - 0.0
05/10:00pm 29.8 29.3 16.9 45 8.2 NE 15 22 8 12 1007.9 - 0.0
05/09:30pm 30.2 28.9 16.9 44 8.4 NE 19 26 10 14 1007.7 - 0.0
05/09:00pm 30.1 29.2 16.9 45 8.4 ENE 17 22 9 12 1007.5 1006.5 0.0
05/08:30pm 30.4 29.0 17.1 44 8.4 ENE 20 28 11 15 1007.3 - 0.0
05/08:00pm 30.6 28.4 17.0 44 8.6 ENE 24 33 13 18 1007.0 - 0.0
05/07:30pm 31.0 29.2 17.0 43 8.9 ENE 22 30 12 16 1006.4 - 0.0
05/07:00pm 31.2 28.6 16.8 42 9.1 ENE 26 37 14 20 1005.8 - 0.0
05/06:30pm 32.0 28.8 16.3 39 9.9 E 28 37 15 20 1005.3 - 0.0
05/06:00pm 32.5 30.3 15.9 36 10.5 E 22 33 12 18 1004.9 1003.8 0.0
05/05:30pm 32.3 29.4 16.2 38 10.2 E 26 39 14 21 1004.6 - 0.0
05/05:00pm 33.3 30.1 15.3 34 11.2 E 26 43 14 23 1004.4 - 0.0
05/04:30pm 34.4 31.6 16.3 34 11.5 E 26 37 14 20 1004.4 - 0.0
05/04:00pm 33.9 30.1 15.8 33 11.4 E 30 41 16 22 1004.5 - 0.0
05/03:38pm 33.7 30.8 17.0 37 10.7 E 28 46 15 25 1004.7 - 0.0
05/03:30pm 33.3 29.5 15.8 35 11.0 E 30 46 16 25 1004.7 - 0.0
05/03:29pm 33.5 30.5 16.8 36 10.7 E 28 46 15 25 1004.7 - 0.0
05/03:00pm 34.3 32.2 17.1 36 11.1 E 24 33 13 18 1005.1 1004.0 0.0
05/02:30pm 33.9 32.0 17.6 38 10.5 E 24 35 13 19 1005.7 - 0.0
05/02:00pm 33.3 31.1 17.0 37 10.4 ESE 24 35 13 19 1006.0 - 0.0
05/01:30pm 33.5 32.5 18.8 41 9.7 E 22 33 12 18 1006.5 - 0.0
05/01:00pm 33.6 33.5 20.0 44 9.1 E 20 35 11 19 1006.8 - 0.0
05/12:30pm 32.2 31.8 18.8 45 8.8 ESE 19 32 10 17 1007.2 - 0.0
05/12:00pm 31.3 30.6 18.3 46 8.4 ESE 19 33 10 18 1007.5 1006.4 0.0
05/11:30am 31.4 30.1 19.1 48 8.1 ESE 24 39 13 21 1007.8 - 0.0
05/11:00am 31.0 29.8 18.4 47 8.2 ESE 22 32 12 17 1008.1 - 0.0
05/10:30am 30.0 29.1 19.1 52 7.1 E 22 32 12 17 1008.3 - 0.0
05/10:00am 29.1 27.1 18.2 51 7.0 ESE 26 33 14 18 1008.3 - 0.0
05/09:30am 28.5 26.3 18.6 55 6.4 E 28 41 15 22 1008.2 - 0.0
05/09:00am 28.3 26.0 18.4 55 6.4 ESE 28 41 15 22 1007.9 1006.9 0.0
05/08:30am 27.7 25.7 17.5 53 6.5 ESE 24 35 13 19 1007.6 - 0.0
05/08:00am 27.3 24.8 17.2 54 6.4 ESE 26 39 14 21 1007.5 - 0.0
05/07:30am 26.9 25.5 17.1 55 6.1 ESE 20 28 11 15 1007.1 - 0.0
05/07:00am 25.9 25.6 16.5 56 5.8 SE 13 19 7 10 1006.8 - 0.0
05/06:30am 24.9 24.7 15.8 57 5.6 SE 11 15 6 8 1006.6 - 0.0
05/06:00am 24.6 24.1 15.0 55 5.8 SSE 11 13 6 7 1006.2 1005.2 0.0
05/05:30am 24.2 23.7 14.9 56 5.6 S 11 13 6 7 1005.6 - 0.0
05/05:00am 24.3 23.7 14.7 55 5.7 SSW 11 11 6 6 1005.3 - 0.0
05/04:30am 24.5 23.8 14.3 53 6.1 SSW 11 11 6 6 1005.0 - 0.0
05/04:00am 24.8 24.1 14.3 52 6.3 SSW 11 11 6 6 1004.8 - 0.0
05/03:30am 25.1 24.4 14.3 51 6.4 SSW 11 13 6 7 1004.7 - 0.0
05/03:00am 25.0 24.5 13.9 50 6.6 SW 9 11 5 6 1004.7 1003.6 0.0
05/02:30am 24.7 24.8 14.5 53 6.1 SSW 7 9 4 5 1004.9 - 0.0
05/02:00am 25.1 24.5 13.6 49 6.8 SSW 9 11 5 6 1005.1 - 0.0
05/01:30am 25.8 25.0 14.0 48 7.0 S 11 13 6 7 1005.4 - 0.0
05/01:00am 26.1 25.2 13.6 46 7.4 S 11 13 6 7 1005.8 - 0.0
05/12:30am 26.4 24.9 13.2 44 7.8 S 13 15 7 8 1006.2 - 0.0
05/12:00am 26.8 25.6 12.8 42 8.2 SSW 11 13 6 7 1006.7 1005.7 0.0
 
Date/Time
EST
Temp
°C
App
Temp
°C
Dew
Point
Rel
Hum
%
Delta-T
°C
Wind Press
QNH
hPa
Press
MSL
hPa
Rain
since 9 am
mm
Dir
 
Spd
km/h
Gust
km/h
Spd
kts
Gust
kts
04/11:30pm 27.3 25.1 12.1 39 8.8 S 15 17 8 9 1006.9 - 0.0
04/11:00pm 27.8 25.6 12.2 38 9.1 S 15 19 8 10 1007.3 - 0.0
04/10:30pm 28.0 26.5 12.0 37 9.3 S 11 13 6 7 1007.3 - 0.0
04/10:00pm 28.6 26.5 11.2 34 10.0 S 13 15 7 8 1007.4 - 0.0
04/09:30pm 29.0 27.3 11.1 33 10.3 S 11 19 6 10 1007.3 - 0.0
04/09:00pm 29.5 27.6 10.6 31 10.8 S 11 15 6 8 1007.1 1006.2 0.0
04/08:30pm 30.1 27.3 10.1 29 11.4 S 15 20 8 11 1006.8 - 0.0
04/08:00pm 30.7 26.7 9.0 26 12.2 S 20 26 11 14 1006.4 - 0.0
04/07:30pm 31.1 26.3 8.8 25 12.5 S 24 33 13 18 1005.9 - 0.0
04/07:00pm 31.8 27.3 8.7 24 13.0 S 22 32 12 17 1005.5 - 0.0
04/06:30pm 32.4 27.9 8.6 23 13.4 S 22 28 12 15 1005.3 - 0.0
04/06:00pm 32.5 28.4 8.0 22 13.7 SSE 19 28 10 15 1005.0 1003.9 0.0
04/05:30pm 33.0 28.1 8.5 22 13.8 S 24 30 13 16 1004.8 - 0.0
04/05:00pm 33.1 27.8 8.5 22 13.9 S 26 35 14 19 1004.8 - 0.0
04/04:30pm 33.0 29.3 7.8 21 14.0 S 17 30 9 16 1005.1 - 0.0
04/04:00pm 32.8 28.6 7.6 21 14.0 SSW 19 30 10 16 1005.4 - 0.0
04/03:30pm 32.0 26.7 7.0 21 13.7 SSW 24 33 13 18 1005.7 - 0.0
04/03:00pm 33.1 27.8 8.5 22 13.9 S 26 35 14 19 1006.0 1005.0 0.0
04/02:30pm 31.7 28.5 9.8 26 12.5 SW 17 30 9 16 1006.6 - 0.0
04/02:00pm 31.2 27.3 8.8 25 12.6 SSE 19 24 10 13 1007.1 - 0.0
04/01:30pm 31.4 28.1 9.6 26 12.4 SSW 17 30 9 16 1007.4 - 0.0
04/01:00pm 30.9 26.7 9.7 27 12.0 S 22 30 12 16 1007.7 - 0.0
04/12:30pm 30.8 27.4 11.2 30 11.4 SSW 20 30 11 16 1008.1 - 0.0
04/12:00pm 29.2 26.0 9.8 30 11.0 SSE 17 30 9 16 1008.6 1007.4 0.0
04/11:30am 29.5 26.3 11.1 32 10.6 SSW 19 28 10 15 1008.9 - 0.0
04/11:00am 29.6 26.8 12.5 35 10.1 SSE 19 26 10 14 1009.3 - 0.0
04/10:30am 28.1 25.1 12.0 36 9.4 SSE 19 24 10 13 1009.6 - 0.0
04/10:00am 28.2 26.1 13.7 41 8.7 SSE 17 24 9 13 1009.7 - 0.0
04/09:30am 27.0 24.3 13.0 42 8.2 SSE 19 22 10 12 1009.8 - 0.0
04/09:00am 26.6 23.6 13.7 45 7.7 S 22 32 12 17 1009.6 1008.5 0.2
04/08:30am 25.9 22.4 13.4 46 7.4 SSE 24 35 13 19 1009.2 - 0.2
04/08:00am 25.4 22.5 13.9 49 6.8 SSE 22 33 12 18 1009.1 - 0.2
04/07:30am 25.0 23.1 14.2 51 6.4 SSE 17 26 9 14 1009.0 - 0.2
04/07:00am 24.3 22.5 14.4 54 5.9 SSE 17 22 9 12 1008.6 - 0.2
04/06:30am 24.2 21.8 14.3 54 5.9 S 20 28 11 15 1008.2 - 0.2
04/06:00am 24.2 21.9 14.6 55 5.7 S 20 30 11 16 1007.7 1006.7 0.2
04/05:30am 24.4 22.3 14.8 55 5.8 S 19 26 10 14 1007.4 - 0.2
04/05:00am 25.0 22.6 14.5 52 6.3 S 20 24 11 13 1007.0 - 0.2
04/04:30am 25.5 22.3 14.3 50 6.7 S 24 33 13 18 1006.6 - 0.2
04/04:00am 25.8 22.6 14.3 49 6.9 S 24 32 13 17 1006.5 - 0.2
04/03:30am 26.1 23.5 13.9 47 7.3 S 20 28 11 15 1006.5 - 0.2
04/03:00am 26.4 23.7 13.5 45 7.7 S 20 30 11 16 1006.3 1005.3 0.2
04/02:30am 26.1 25.0 14.2 48 7.1 S 13 17 7 9 1006.4 - 0.2
04/02:00am 26.1 24.2 14.2 48 7.1 S 17 20 9 11 1006.2 - 0.2
04/01:30am 26.2 23.9 14.0 47 7.3 S 19 22 10 12 1006.1 - 0.2
04/01:00am 26.4 23.7 13.5 45 7.6 S 20 28 11 15 1006.0 - 0.2
04/12:30am 26.5 24.9 13.9 45 7.5 SSW 15 20 8 11 1006.2 - 0.2
04/12:00am 26.3 25.5 15.0 49 6.9 SSW 13 17 7 9 1006.5 1005.4 0.2
 
Date/Time
EST
Temp
°C
App
Temp
°C
Dew
Point
Rel
Hum
%
Delta-T
°C
Wind Press
QNH
hPa
Press
MSL
hPa
Rain
since 9 am
mm
Dir
 
Spd
km/h
Gust
km/h
Spd
kts
Gust
kts
03/11:30pm 26.0 25.9 16.0 54 6.1 SW 11 15 6 8 1006.7 - 0.2
03/11:00pm 26.1 25.8 15.5 52 6.5 WSW 11 11 6 6 1006.6 - 0.2
03/10:30pm 26.7 26.6 16.0 52 6.6 WSW 11 13 6 7 1006.7 - 0.2
03/10:00pm 27.3 27.1 15.6 48 7.2 W 11 13 6 7 1006.8 - 0.2
03/09:30pm 27.9 27.0 14.9 45 7.9 WSW 13 17 7 9 1006.5 - 0.2

Other Formats:

Comma delimited format used in spreadsheet applications
http://www.bom.gov.au/fwo/IDQ60801/IDQ60801.95492.axf

JavaScript Object Notation format (JSON) in row-major order
http://www.bom.gov.au/fwo/IDQ60801/IDQ60801.95492.json